sensor_id;sensor_type;location;lat;lon;timestamp;P1;durP1;ratioP1;P2;durP2;ratioP2
57567;SDS011;43403;51.948;5.922;2023-11-19T00:00:36;15.98;;;12.15;;
57567;SDS011;43403;51.948;5.922;2023-11-19T00:03:02;14.40;;;12.20;;
57567;SDS011;43403;51.948;5.922;2023-11-19T00:05:28;13.05;;;11.05;;
57567;SDS011;43403;51.948;5.922;2023-11-19T00:07:55;13.68;;;11.27;;
57567;SDS011;43403;51.948;5.922;2023-11-19T00:10:21;13.63;;;11.40;;
57567;SDS011;43403;51.948;5.922;2023-11-19T00:12:48;14.55;;;11.40;;
57567;SDS011;43403;51.948;5.922;2023-11-19T00:15:16;16.55;;;11.13;;
57567;SDS011;43403;51.948;5.922;2023-11-19T00:17:45;15.93;;;11.05;;
57567;SDS011;43403;51.948;5.922;2023-11-19T00:20:16;15.45;;;11.85;;
57567;SDS011;43403;51.948;5.922;2023-11-19T00:22:43;16.65;;;11.63;;
57567;SDS011;43403;51.948;5.922;2023-11-19T00:25:12;12.68;;;10.27;;
57567;SDS011;43403;51.948;5.922;2023-11-19T00:27:39;13.18;;;9.85;;
57567;SDS011;43403;51.948;5.922;2023-11-19T00:30:05;15.40;;;9.60;;
57567;SDS011;43403;51.948;5.922;2023-11-19T00:32:32;14.65;;;9.10;;
57567;SDS011;43403;51.948;5.922;2023-11-19T00:34:59;12.35;;;9.05;;
57567;SDS011;43403;51.948;5.922;2023-11-19T00:37:25;17.45;;;8.82;;
57567;SDS011;43403;51.948;5.922;2023-11-19T00:39:52;12.73;;;8.55;;
57567;SDS011;43403;51.948;5.922;2023-11-19T00:42:18;15.77;;;8.88;;
57567;SDS011;43403;51.948;5.922;2023-11-19T00:44:45;12.85;;;7.35;;
57567;SDS011;43403;51.948;5.922;2023-11-19T00:47:14;12.20;;;7.05;;
57567;SDS011;43403;51.948;5.922;2023-11-19T00:49:41;14.32;;;7.32;;
57567;SDS011;43403;51.948;5.922;2023-11-19T00:52:08;16.65;;;7.70;;
57567;SDS011;43403;51.948;5.922;2023-11-19T00:54:35;11.57;;;7.60;;
57567;SDS011;43403;51.948;5.922;2023-11-19T00:57:01;15.02;;;8.10;;
57567;SDS011;43403;51.948;5.922;2023-11-19T00:59:28;13.50;;;6.72;;
57567;SDS011;43403;51.948;5.922;2023-11-19T01:01:55;18.73;;;6.63;;
57567;SDS011;43403;51.948;5.922;2023-11-19T01:04:22;12.83;;;6.10;;
57567;SDS011;43403;51.948;5.922;2023-11-19T01:06:50;12.82;;;5.97;;
57567;SDS011;43403;51.948;5.922;2023-11-19T01:09:17;20.05;;;6.35;;
57567;SDS011;43403;51.948;5.922;2023-11-19T01:11:43;16.92;;;7.03;;
57567;SDS011;43403;51.948;5.922;2023-11-19T01:14:09;18.98;;;6.82;;
57567;SDS011;43403;51.948;5.922;2023-11-19T01:16:36;21.58;;;6.18;;
57567;SDS011;43403;51.948;5.922;2023-11-19T01:19:02;16.65;;;5.65;;
57567;SDS011;43403;51.948;5.922;2023-11-19T01:21:42;18.20;;;5.40;;
57567;SDS011;43403;51.948;5.922;2023-11-19T01:24:10;20.63;;;5.03;;
57567;SDS011;43403;51.948;5.922;2023-11-19T01:26:38;17.02;;;5.53;;
57567;SDS011;43403;51.948;5.922;2023-11-19T01:29:05;18.30;;;5.13;;
57567;SDS011;43403;51.948;5.922;2023-11-19T01:31:31;17.42;;;5.72;;
57567;SDS011;43403;51.948;5.922;2023-11-19T01:34:00;17.25;;;4.75;;
57567;SDS011;43403;51.948;5.922;2023-11-19T01:36:26;21.52;;;4.70;;
57567;SDS011;43403;51.948;5.922;2023-11-19T01:38:53;14.70;;;4.28;;
57567;SDS011;43403;51.948;5.922;2023-11-19T01:41:19;17.10;;;4.47;;
57567;SDS011;43403;51.948;5.922;2023-11-19T01:43:45;20.92;;;5.03;;
57567;SDS011;43403;51.948;5.922;2023-11-19T01:46:13;18.40;;;4.10;;
57567;SDS011;43403;51.948;5.922;2023-11-19T01:48:41;19.35;;;4.45;;
57567;SDS011;43403;51.948;5.922;2023-11-19T01:51:08;25.67;;;4.97;;
57567;SDS011;43403;51.948;5.922;2023-11-19T01:53:36;21.90;;;4.45;;
57567;SDS011;43403;51.948;5.922;2023-11-19T01:56:03;19.73;;;4.40;;
57567;SDS011;43403;51.948;5.922;2023-11-19T01:58:30;22.00;;;4.38;;
57567;SDS011;43403;51.948;5.922;2023-11-19T02:00:57;19.65;;;4.93;;
57567;SDS011;43403;51.948;5.922;2023-11-19T02:03:23;20.55;;;4.10;;
57567;SDS011;43403;51.948;5.922;2023-11-19T02:08:19;17.63;;;4.47;;
57567;SDS011;43403;51.948;5.922;2023-11-19T02:10:46;20.27;;;4.30;;
57567;SDS011;43403;51.948;5.922;2023-11-19T02:13:12;25.65;;;5.60;;
57567;SDS011;43403;51.948;5.922;2023-11-19T02:15:43;31.27;;;4.60;;
57567;SDS011;43403;51.948;5.922;2023-11-19T02:20:46;21.48;;;4.00;;
57567;SDS011;43403;51.948;5.922;2023-11-19T02:23:16;15.85;;;3.80;;
57567;SDS011;43403;51.948;5.922;2023-11-19T02:25:42;23.00;;;3.97;;
57567;SDS011;43403;51.948;5.922;2023-11-19T02:28:09;25.90;;;3.75;;
57567;SDS011;43403;51.948;5.922;2023-11-19T02:30:38;18.25;;;4.45;;
57567;SDS011;43403;51.948;5.922;2023-11-19T02:33:04;23.60;;;4.53;;
57567;SDS011;43403;51.948;5.922;2023-11-19T02:35:34;18.00;;;4.00;;
57567;SDS011;43403;51.948;5.922;2023-11-19T02:38:01;22.85;;;4.25;;
57567;SDS011;43403;51.948;5.922;2023-11-19T02:42:56;21.95;;;3.58;;
57567;SDS011;43403;51.948;5.922;2023-11-19T02:45:23;34.05;;;5.00;;
57567;SDS011;43403;51.948;5.922;2023-11-19T02:47:49;22.85;;;3.72;;
57567;SDS011;43403;51.948;5.922;2023-11-19T02:50:16;23.45;;;4.53;;
57567;SDS011;43403;51.948;5.922;2023-11-19T02:52:43;26.40;;;4.88;;
57567;SDS011;43403;51.948;5.922;2023-11-19T02:55:10;29.40;;;5.10;;
57567;SDS011;43403;51.948;5.922;2023-11-19T02:57:38;30.05;;;4.35;;
57567;SDS011;43403;51.948;5.922;2023-11-19T03:02:44;27.27;;;3.88;;
57567;SDS011;43403;51.948;5.922;2023-11-19T03:05:13;23.80;;;3.80;;
57567;SDS011;43403;51.948;5.922;2023-11-19T03:07:41;24.60;;;3.38;;
57567;SDS011;43403;51.948;5.922;2023-11-19T03:10:09;26.10;;;3.67;;
57567;SDS011;43403;51.948;5.922;2023-11-19T03:12:38;31.80;;;4.43;;
57567;SDS011;43403;51.948;5.922;2023-11-19T03:15:05;23.90;;;4.10;;
57567;SDS011;43403;51.948;5.922;2023-11-19T03:17:32;27.08;;;4.93;;
57567;SDS011;43403;51.948;5.922;2023-11-19T03:19:58;41.35;;;6.32;;
57567;SDS011;43403;51.948;5.922;2023-11-19T03:22:24;27.70;;;4.30;;
57567;SDS011;43403;51.948;5.922;2023-11-19T03:24:51;33.53;;;4.70;;
57567;SDS011;43403;51.948;5.922;2023-11-19T03:27:17;31.38;;;4.88;;
57567;SDS011;43403;51.948;5.922;2023-11-19T03:29:44;25.02;;;5.15;;
57567;SDS011;43403;51.948;5.922;2023-11-19T03:32:10;39.72;;;5.25;;
57567;SDS011;43403;51.948;5.922;2023-11-19T03:34:38;29.33;;;4.60;;
57567;SDS011;43403;51.948;5.922;2023-11-19T03:37:06;29.43;;;4.77;;
57567;SDS011;43403;51.948;5.922;2023-11-19T03:39:32;33.05;;;5.25;;
57567;SDS011;43403;51.948;5.922;2023-11-19T03:41:59;40.25;;;5.65;;
57567;SDS011;43403;51.948;5.922;2023-11-19T03:44:27;30.55;;;4.97;;
57567;SDS011;43403;51.948;5.922;2023-11-19T03:46:53;34.30;;;5.55;;
57567;SDS011;43403;51.948;5.922;2023-11-19T03:49:19;40.47;;;6.28;;
57567;SDS011;43403;51.948;5.922;2023-11-19T03:51:46;34.53;;;5.10;;
57567;SDS011;43403;51.948;5.922;2023-11-19T03:54:13;30.42;;;5.60;;
57567;SDS011;43403;51.948;5.922;2023-11-19T03:56:39;37.08;;;4.80;;
57567;SDS011;43403;51.948;5.922;2023-11-19T03:59:05;33.85;;;5.28;;
57567;SDS011;43403;51.948;5.922;2023-11-19T04:01:32;30.98;;;4.28;;
57567;SDS011;43403;51.948;5.922;2023-11-19T04:03:58;29.65;;;4.65;;
57567;SDS011;43403;51.948;5.922;2023-11-19T04:06:25;40.88;;;6.40;;
57567;SDS011;43403;51.948;5.922;2023-11-19T04:08:52;39.70;;;4.40;;
57567;SDS011;43403;51.948;5.922;2023-11-19T04:11:18;32.53;;;5.20;;
57567;SDS011;43403;51.948;5.922;2023-11-19T04:13:44;36.03;;;7.10;;
57567;SDS011;43403;51.948;5.922;2023-11-19T04:16:11;34.53;;;4.72;;
57567;SDS011;43403;51.948;5.922;2023-11-19T04:18:37;29.73;;;4.72;;
57567;SDS011;43403;51.948;5.922;2023-11-19T04:21:05;37.53;;;5.70;;
57567;SDS011;43403;51.948;5.922;2023-11-19T04:25:58;30.83;;;4.30;;
57567;SDS011;43403;51.948;5.922;2023-11-19T04:28:36;32.85;;;5.07;;
57567;SDS011;43403;51.948;5.922;2023-11-19T04:31:03;35.03;;;6.13;;
57567;SDS011;43403;51.948;5.922;2023-11-19T04:33:30;35.28;;;5.70;;
57567;SDS011;43403;51.948;5.922;2023-11-19T04:35:56;33.90;;;4.40;;
57567;SDS011;43403;51.948;5.922;2023-11-19T04:38:22;30.70;;;4.55;;
57567;SDS011;43403;51.948;5.922;2023-11-19T04:40:49;25.02;;;4.10;;
57567;SDS011;43403;51.948;5.922;2023-11-19T04:43:15;36.00;;;5.07;;
57567;SDS011;43403;51.948;5.922;2023-11-19T04:45:42;23.65;;;4.38;;
57567;SDS011;43403;51.948;5.922;2023-11-19T04:48:08;35.17;;;5.88;;
57567;SDS011;43403;51.948;5.922;2023-11-19T04:50:35;33.20;;;5.13;;
57567;SDS011;43403;51.948;5.922;2023-11-19T04:53:01;31.80;;;4.30;;
57567;SDS011;43403;51.948;5.922;2023-11-19T04:55:29;35.30;;;4.73;;
57567;SDS011;43403;51.948;5.922;2023-11-19T04:57:55;35.08;;;4.80;;
57567;SDS011;43403;51.948;5.922;2023-11-19T05:00:22;32.88;;;4.90;;
57567;SDS011;43403;51.948;5.922;2023-11-19T05:02:49;34.30;;;5.07;;
57567;SDS011;43403;51.948;5.922;2023-11-19T05:05:16;31.58;;;4.75;;
57567;SDS011;43403;51.948;5.922;2023-11-19T05:07:42;26.83;;;4.40;;
57567;SDS011;43403;51.948;5.922;2023-11-19T05:10:09;30.52;;;4.75;;
57567;SDS011;43403;51.948;5.922;2023-11-19T05:12:36;36.65;;;4.68;;
57567;SDS011;43403;51.948;5.922;2023-11-19T05:15:02;39.80;;;6.68;;
57567;SDS011;43403;51.948;5.922;2023-11-19T05:17:29;30.48;;;4.95;;
57567;SDS011;43403;51.948;5.922;2023-11-19T05:19:55;29.00;;;4.53;;
57567;SDS011;43403;51.948;5.922;2023-11-19T05:22:21;31.42;;;5.47;;
57567;SDS011;43403;51.948;5.922;2023-11-19T05:24:48;37.63;;;5.15;;
57567;SDS011;43403;51.948;5.922;2023-11-19T05:27:15;31.63;;;4.80;;
57567;SDS011;43403;51.948;5.922;2023-11-19T05:29:42;32.95;;;5.15;;
57567;SDS011;43403;51.948;5.922;2023-11-19T05:32:10;36.65;;;5.22;;
57567;SDS011;43403;51.948;5.922;2023-11-19T05:34:36;33.38;;;4.97;;
57567;SDS011;43403;51.948;5.922;2023-11-19T05:37:02;41.97;;;4.70;;
57567;SDS011;43403;51.948;5.922;2023-11-19T05:39:29;35.60;;;5.43;;
57567;SDS011;43403;51.948;5.922;2023-11-19T05:41:55;36.20;;;5.38;;
57567;SDS011;43403;51.948;5.922;2023-11-19T05:44:22;26.48;;;5.72;;
57567;SDS011;43403;51.948;5.922;2023-11-19T05:46:48;33.05;;;5.63;;
57567;SDS011;43403;51.948;5.922;2023-11-19T05:49:14;41.58;;;5.70;;
57567;SDS011;43403;51.948;5.922;2023-11-19T05:51:41;33.40;;;5.40;;
57567;SDS011;43403;51.948;5.922;2023-11-19T05:54:08;33.80;;;5.10;;
57567;SDS011;43403;51.948;5.922;2023-11-19T05:56:36;37.72;;;6.40;;
57567;SDS011;43403;51.948;5.922;2023-11-19T05:59:02;30.90;;;4.72;;
57567;SDS011;43403;51.948;5.922;2023-11-19T06:04:08;40.00;;;6.72;;
57567;SDS011;43403;51.948;5.922;2023-11-19T06:06:34;40.95;;;5.38;;
57567;SDS011;43403;51.948;5.922;2023-11-19T06:09:01;39.17;;;5.72;;
57567;SDS011;43403;51.948;5.922;2023-11-19T06:11:38;36.25;;;5.05;;
57567;SDS011;43403;51.948;5.922;2023-11-19T06:14:05;36.80;;;5.28;;
57567;SDS011;43403;51.948;5.922;2023-11-19T06:16:32;37.58;;;5.85;;
57567;SDS011;43403;51.948;5.922;2023-11-19T06:18:58;36.38;;;5.15;;
57567;SDS011;43403;51.948;5.922;2023-11-19T06:21:25;27.40;;;4.88;;
57567;SDS011;43403;51.948;5.922;2023-11-19T06:23:52;35.50;;;5.38;;
57567;SDS011;43403;51.948;5.922;2023-11-19T06:26:19;37.93;;;5.53;;
57567;SDS011;43403;51.948;5.922;2023-11-19T06:28:46;37.60;;;5.75;;
57567;SDS011;43403;51.948;5.922;2023-11-19T06:31:12;44.67;;;6.03;;
57567;SDS011;43403;51.948;5.922;2023-11-19T06:33:42;32.55;;;5.45;;
57567;SDS011;43403;51.948;5.922;2023-11-19T06:36:08;38.33;;;5.45;;
57567;SDS011;43403;51.948;5.922;2023-11-19T06:38:35;33.08;;;5.38;;
57567;SDS011;43403;51.948;5.922;2023-11-19T06:41:01;39.25;;;5.00;;
57567;SDS011;43403;51.948;5.922;2023-11-19T06:43:28;41.40;;;5.72;;
57567;SDS011;43403;51.948;5.922;2023-11-19T06:46:14;32.85;;;5.10;;
57567;SDS011;43403;51.948;5.922;2023-11-19T06:48:40;40.03;;;5.65;;
57567;SDS011;43403;51.948;5.922;2023-11-19T06:51:09;42.33;;;5.43;;
57567;SDS011;43403;51.948;5.922;2023-11-19T06:53:35;41.90;;;5.88;;
57567;SDS011;43403;51.948;5.922;2023-11-19T06:56:02;36.03;;;5.25;;
57567;SDS011;43403;51.948;5.922;2023-11-19T06:58:35;36.45;;;5.50;;
57567;SDS011;43403;51.948;5.922;2023-11-19T07:01:02;39.80;;;6.25;;
57567;SDS011;43403;51.948;5.922;2023-11-19T07:03:28;29.10;;;4.57;;
57567;SDS011;43403;51.948;5.922;2023-11-19T07:05:55;35.33;;;6.05;;
57567;SDS011;43403;51.948;5.922;2023-11-19T07:08:22;33.97;;;5.07;;
57567;SDS011;43403;51.948;5.922;2023-11-19T07:10:48;39.17;;;5.50;;
57567;SDS011;43403;51.948;5.922;2023-11-19T07:13:15;30.85;;;4.53;;
57567;SDS011;43403;51.948;5.922;2023-11-19T07:15:41;32.67;;;4.93;;
57567;SDS011;43403;51.948;5.922;2023-11-19T07:18:07;33.97;;;5.35;;
57567;SDS011;43403;51.948;5.922;2023-11-19T07:20:34;38.60;;;6.60;;
57567;SDS011;43403;51.948;5.922;2023-11-19T07:23:00;32.20;;;4.88;;
57567;SDS011;43403;51.948;5.922;2023-11-19T07:25:27;35.47;;;5.30;;
57567;SDS011;43403;51.948;5.922;2023-11-19T07:27:53;35.92;;;5.70;;
57567;SDS011;43403;51.948;5.922;2023-11-19T07:30:19;33.75;;;4.97;;
57567;SDS011;43403;51.948;5.922;2023-11-19T07:32:46;39.75;;;5.45;;
57567;SDS011;43403;51.948;5.922;2023-11-19T07:35:12;33.58;;;5.35;;
57567;SDS011;43403;51.948;5.922;2023-11-19T07:37:38;36.92;;;5.07;;
57567;SDS011;43403;51.948;5.922;2023-11-19T07:40:05;30.48;;;5.22;;
57567;SDS011;43403;51.948;5.922;2023-11-19T07:42:32;29.65;;;5.53;;
57567;SDS011;43403;51.948;5.922;2023-11-19T07:44:58;42.90;;;6.15;;
57567;SDS011;43403;51.948;5.922;2023-11-19T07:47:25;33.28;;;4.93;;
57567;SDS011;43403;51.948;5.922;2023-11-19T07:49:51;43.60;;;5.45;;
57567;SDS011;43403;51.948;5.922;2023-11-19T07:52:18;32.33;;;5.15;;
57567;SDS011;43403;51.948;5.922;2023-11-19T07:54:47;38.40;;;5.63;;
57567;SDS011;43403;51.948;5.922;2023-11-19T07:57:14;35.70;;;5.63;;
57567;SDS011;43403;51.948;5.922;2023-11-19T07:59:40;37.80;;;6.18;;
57567;SDS011;43403;51.948;5.922;2023-11-19T08:02:07;50.67;;;6.53;;
57567;SDS011;43403;51.948;5.922;2023-11-19T08:04:33;44.67;;;6.78;;
57567;SDS011;43403;51.948;5.922;2023-11-19T08:07:01;40.33;;;5.38;;
57567;SDS011;43403;51.948;5.922;2023-11-19T08:09:27;33.22;;;4.55;;
57567;SDS011;43403;51.948;5.922;2023-11-19T08:11:54;39.20;;;4.95;;
57567;SDS011;43403;51.948;5.922;2023-11-19T08:14:22;32.35;;;5.47;;
57567;SDS011;43403;51.948;5.922;2023-11-19T08:16:49;31.23;;;4.70;;
57567;SDS011;43403;51.948;5.922;2023-11-19T08:19:16;37.80;;;5.20;;
57567;SDS011;43403;51.948;5.922;2023-11-19T08:21:42;39.35;;;5.80;;
57567;SDS011;43403;51.948;5.922;2023-11-19T08:24:08;37.70;;;5.47;;
57567;SDS011;43403;51.948;5.922;2023-11-19T08:26:35;38.63;;;5.30;;
57567;SDS011;43403;51.948;5.922;2023-11-19T08:29:01;32.28;;;5.43;;
57567;SDS011;43403;51.948;5.922;2023-11-19T08:31:27;38.22;;;5.85;;
57567;SDS011;43403;51.948;5.922;2023-11-19T08:33:54;34.35;;;5.22;;
57567;SDS011;43403;51.948;5.922;2023-11-19T08:36:20;33.83;;;5.15;;
57567;SDS011;43403;51.948;5.922;2023-11-19T08:38:47;34.17;;;5.55;;
57567;SDS011;43403;51.948;5.922;2023-11-19T08:41:15;29.60;;;3.97;;
57567;SDS011;43403;51.948;5.922;2023-11-19T08:43:44;39.53;;;5.38;;
57567;SDS011;43403;51.948;5.922;2023-11-19T08:46:10;37.75;;;5.47;;
57567;SDS011;43403;51.948;5.922;2023-11-19T08:48:37;34.40;;;5.47;;
57567;SDS011;43403;51.948;5.922;2023-11-19T08:51:04;27.98;;;4.82;;
57567;SDS011;43403;51.948;5.922;2023-11-19T08:53:30;40.40;;;5.07;;
57567;SDS011;43403;51.948;5.922;2023-11-19T08:55:57;26.65;;;4.43;;
57567;SDS011;43403;51.948;5.922;2023-11-19T08:58:23;37.75;;;6.55;;
57567;SDS011;43403;51.948;5.922;2023-11-19T09:00:49;28.88;;;4.97;;
57567;SDS011;43403;51.948;5.922;2023-11-19T09:03:16;45.10;;;7.07;;
57567;SDS011;43403;51.948;5.922;2023-11-19T09:05:42;32.03;;;4.85;;
57567;SDS011;43403;51.948;5.922;2023-11-19T09:08:09;39.20;;;6.35;;
57567;SDS011;43403;51.948;5.922;2023-11-19T09:10:37;33.92;;;4.28;;
57567;SDS011;43403;51.948;5.922;2023-11-19T09:13:03;32.30;;;4.35;;
57567;SDS011;43403;51.948;5.922;2023-11-19T09:15:30;30.45;;;5.38;;
57567;SDS011;43403;51.948;5.922;2023-11-19T09:17:56;38.55;;;4.40;;
57567;SDS011;43403;51.948;5.922;2023-11-19T09:20:23;34.03;;;4.20;;
57567;SDS011;43403;51.948;5.922;2023-11-19T09:22:49;35.67;;;4.45;;
57567;SDS011;43403;51.948;5.922;2023-11-19T09:25:16;35.58;;;5.20;;
57567;SDS011;43403;51.948;5.922;2023-11-19T09:27:43;32.28;;;4.90;;
57567;SDS011;43403;51.948;5.922;2023-11-19T09:30:10;36.65;;;5.38;;
57567;SDS011;43403;51.948;5.922;2023-11-19T09:32:36;28.88;;;5.10;;
57567;SDS011;43403;51.948;5.922;2023-11-19T09:35:04;28.65;;;5.30;;
57567;SDS011;43403;51.948;5.922;2023-11-19T09:37:30;42.40;;;6.68;;
57567;SDS011;43403;51.948;5.922;2023-11-19T09:39:56;28.95;;;4.57;;
57567;SDS011;43403;51.948;5.922;2023-11-19T09:42:23;32.40;;;4.70;;
57567;SDS011;43403;51.948;5.922;2023-11-19T09:44:50;28.23;;;4.47;;
57567;SDS011;43403;51.948;5.922;2023-11-19T09:47:17;34.10;;;4.68;;
57567;SDS011;43403;51.948;5.922;2023-11-19T09:49:45;39.10;;;5.30;;
57567;SDS011;43403;51.948;5.922;2023-11-19T09:52:11;31.45;;;5.13;;
57567;SDS011;43403;51.948;5.922;2023-11-19T09:54:38;27.60;;;5.43;;
57567;SDS011;43403;51.948;5.922;2023-11-19T09:57:04;29.90;;;5.32;;
57567;SDS011;43403;51.948;5.922;2023-11-19T09:59:32;28.05;;;4.65;;
57567;SDS011;43403;51.948;5.922;2023-11-19T10:01:59;38.10;;;5.10;;
57567;SDS011;43403;51.948;5.922;2023-11-19T10:04:26;31.75;;;4.53;;
57567;SDS011;43403;51.948;5.922;2023-11-19T10:06:55;32.53;;;5.47;;
57567;SDS011;43403;51.948;5.922;2023-11-19T10:09:22;26.27;;;4.78;;
57567;SDS011;43403;51.948;5.922;2023-11-19T10:11:49;28.85;;;5.47;;
57567;SDS011;43403;51.948;5.922;2023-11-19T10:14:16;35.58;;;5.38;;
57567;SDS011;43403;51.948;5.922;2023-11-19T10:16:45;33.50;;;4.63;;
57567;SDS011;43403;51.948;5.922;2023-11-19T10:19:16;30.33;;;4.65;;
57567;SDS011;43403;51.948;5.922;2023-11-19T10:21:44;35.80;;;4.88;;
57567;SDS011;43403;51.948;5.922;2023-11-19T10:24:12;30.37;;;4.20;;
57567;SDS011;43403;51.948;5.922;2023-11-19T10:26:56;35.10;;;5.32;;
57567;SDS011;43403;51.948;5.922;2023-11-19T10:29:23;26.60;;;4.22;;
57567;SDS011;43403;51.948;5.922;2023-11-19T10:31:56;36.92;;;5.43;;
57567;SDS011;43403;51.948;5.922;2023-11-19T10:34:43;37.20;;;5.57;;
57567;SDS011;43403;51.948;5.922;2023-11-19T10:37:11;31.13;;;5.18;;
57567;SDS011;43403;51.948;5.922;2023-11-19T10:39:53;30.80;;;4.65;;
57567;SDS011;43403;51.948;5.922;2023-11-19T10:42:23;29.80;;;5.13;;
57567;SDS011;43403;51.948;5.922;2023-11-19T10:44:49;26.25;;;3.78;;
57567;SDS011;43403;51.948;5.922;2023-11-19T10:47:16;30.60;;;4.22;;
57567;SDS011;43403;51.948;5.922;2023-11-19T10:49:45;28.15;;;3.95;;
57567;SDS011;43403;51.948;5.922;2023-11-19T10:52:16;34.17;;;6.00;;
57567;SDS011;43403;51.948;5.922;2023-11-19T10:54:44;28.08;;;4.53;;
57567;SDS011;43403;51.948;5.922;2023-11-19T10:57:10;29.00;;;4.32;;
57567;SDS011;43403;51.948;5.922;2023-11-19T10:59:38;33.88;;;5.18;;
57567;SDS011;43403;51.948;5.922;2023-11-19T11:02:06;28.20;;;5.07;;
57567;SDS011;43403;51.948;5.922;2023-11-19T11:04:37;29.00;;;3.78;;
57567;SDS011;43403;51.948;5.922;2023-11-19T11:07:06;28.98;;;5.05;;
57567;SDS011;43403;51.948;5.922;2023-11-19T11:09:33;29.17;;;4.18;;
57567;SDS011;43403;51.948;5.922;2023-11-19T11:11:59;31.63;;;5.32;;
57567;SDS011;43403;51.948;5.922;2023-11-19T11:14:27;25.40;;;4.68;;
57567;SDS011;43403;51.948;5.922;2023-11-19T11:16:54;28.23;;;5.10;;
57567;SDS011;43403;51.948;5.922;2023-11-19T11:19:22;27.02;;;4.93;;
57567;SDS011;43403;51.948;5.922;2023-11-19T11:21:50;30.48;;;4.78;;
57567;SDS011;43403;51.948;5.922;2023-11-19T11:29:35;23.25;;;4.10;;
57567;SDS011;43403;51.948;5.922;2023-11-19T11:39:34;30.15;;;3.95;;
57567;SDS011;43403;51.948;5.922;2023-11-19T11:47:33;26.80;;;4.00;;
57567;SDS011;43403;51.948;5.922;2023-11-19T11:50:13;24.23;;;4.45;;
57567;SDS011;43403;51.948;5.922;2023-11-19T11:55:28;27.88;;;5.20;;
57567;SDS011;43403;51.948;5.922;2023-11-19T11:58:00;26.15;;;4.40;;
57567;SDS011;43403;51.948;5.922;2023-11-19T12:00:27;31.77;;;4.35;;
57567;SDS011;43403;51.948;5.922;2023-11-19T12:02:57;25.88;;;4.05;;
57567;SDS011;43403;51.948;5.922;2023-11-19T12:05:25;25.77;;;3.90;;
57567;SDS011;43403;51.948;5.922;2023-11-19T12:07:55;29.27;;;4.95;;
57567;SDS011;43403;51.948;5.922;2023-11-19T12:10:21;30.83;;;4.10;;
57567;SDS011;43403;51.948;5.922;2023-11-19T12:15:16;31.65;;;4.55;;
57567;SDS011;43403;51.948;5.922;2023-11-19T12:17:49;25.15;;;4.47;;
57567;SDS011;43403;51.948;5.922;2023-11-19T12:20:17;26.02;;;4.28;;
57567;SDS011;43403;51.948;5.922;2023-11-19T12:22:59;21.15;;;3.97;;
57567;SDS011;43403;51.948;5.922;2023-11-19T12:25:32;18.38;;;3.03;;
57567;SDS011;43403;51.948;5.922;2023-11-19T12:28:00;23.70;;;3.35;;
57567;SDS011;43403;51.948;5.922;2023-11-19T12:30:30;18.92;;;3.33;;
57567;SDS011;43403;51.948;5.922;2023-11-19T12:32:57;18.90;;;2.70;;
57567;SDS011;43403;51.948;5.922;2023-11-19T12:35:24;19.40;;;3.47;;
57567;SDS011;43403;51.948;5.922;2023-11-19T12:37:50;16.95;;;3.33;;
57567;SDS011;43403;51.948;5.922;2023-11-19T12:40:24;23.80;;;3.30;;
57567;SDS011;43403;51.948;5.922;2023-11-19T12:42:51;22.48;;;3.55;;
57567;SDS011;43403;51.948;5.922;2023-11-19T12:45:19;22.80;;;3.90;;
57567;SDS011;43403;51.948;5.922;2023-11-19T12:47:47;20.40;;;4.00;;
57567;SDS011;43403;51.948;5.922;2023-11-19T12:50:15;20.60;;;3.40;;
57567;SDS011;43403;51.948;5.922;2023-11-19T12:52:41;19.95;;;3.40;;
57567;SDS011;43403;51.948;5.922;2023-11-19T12:55:24;17.05;;;2.63;;
57567;SDS011;43403;51.948;5.922;2023-11-19T12:57:55;20.55;;;3.38;;
57567;SDS011;43403;51.948;5.922;2023-11-19T13:00:22;21.10;;;3.17;;
57567;SDS011;43403;51.948;5.922;2023-11-19T13:02:49;16.92;;;3.55;;
57567;SDS011;43403;51.948;5.922;2023-11-19T13:07:48;19.08;;;3.30;;
57567;SDS011;43403;51.948;5.922;2023-11-19T13:10:15;23.50;;;4.47;;
57567;SDS011;43403;51.948;5.922;2023-11-19T13:12:59;21.80;;;3.50;;
57567;SDS011;43403;51.948;5.922;2023-11-19T13:15:25;23.65;;;3.83;;
57567;SDS011;43403;51.948;5.922;2023-11-19T13:17:52;24.67;;;4.20;;
57567;SDS011;43403;51.948;5.922;2023-11-19T13:20:19;20.55;;;4.10;;
57567;SDS011;43403;51.948;5.922;2023-11-19T13:22:55;23.60;;;3.55;;
57567;SDS011;43403;51.948;5.922;2023-11-19T13:30:24;22.33;;;3.58;;
57567;SDS011;43403;51.948;5.922;2023-11-19T13:32:53;22.70;;;4.40;;
57567;SDS011;43403;51.948;5.922;2023-11-19T13:37:51;20.45;;;2.78;;
57567;SDS011;43403;51.948;5.922;2023-11-19T13:40:18;23.35;;;3.40;;
57567;SDS011;43403;51.948;5.922;2023-11-19T13:42:45;26.13;;;4.15;;
57567;SDS011;43403;51.948;5.922;2023-11-19T13:45:12;21.77;;;3.63;;
57567;SDS011;43403;51.948;5.922;2023-11-19T13:47:40;28.83;;;4.88;;
57567;SDS011;43403;51.948;5.922;2023-11-19T13:50:11;26.08;;;4.25;;
57567;SDS011;43403;51.948;5.922;2023-11-19T13:52:38;22.70;;;3.78;;
57567;SDS011;43403;51.948;5.922;2023-11-19T13:55:08;27.13;;;4.30;;
57567;SDS011;43403;51.948;5.922;2023-11-19T13:57:35;26.77;;;4.50;;
57567;SDS011;43403;51.948;5.922;2023-11-19T14:00:08;22.27;;;3.95;;
57567;SDS011;43403;51.948;5.922;2023-11-19T14:02:42;21.77;;;3.97;;
57567;SDS011;43403;51.948;5.922;2023-11-19T14:05:09;20.23;;;3.72;;
57567;SDS011;43403;51.948;5.922;2023-11-19T14:07:37;22.50;;;4.45;;
57567;SDS011;43403;51.948;5.922;2023-11-19T14:10:04;27.98;;;4.75;;
57567;SDS011;43403;51.948;5.922;2023-11-19T14:12:32;19.52;;;3.90;;
57567;SDS011;43403;51.948;5.922;2023-11-19T14:14:59;23.52;;;4.57;;
57567;SDS011;43403;51.948;5.922;2023-11-19T14:17:26;22.25;;;4.25;;
57567;SDS011;43403;51.948;5.922;2023-11-19T14:19:54;27.77;;;4.68;;
57567;SDS011;43403;51.948;5.922;2023-11-19T14:22:20;21.02;;;4.03;;
57567;SDS011;43403;51.948;5.922;2023-11-19T14:24:47;23.70;;;4.35;;
57567;SDS011;43403;51.948;5.922;2023-11-19T14:27:13;27.08;;;4.97;;
57567;SDS011;43403;51.948;5.922;2023-11-19T14:29:39;25.80;;;3.75;;
57567;SDS011;43403;51.948;5.922;2023-11-19T14:32:06;29.92;;;5.10;;
57567;SDS011;43403;51.948;5.922;2023-11-19T14:34:33;25.13;;;5.15;;
57567;SDS011;43403;51.948;5.922;2023-11-19T14:36:59;19.20;;;3.75;;
57567;SDS011;43403;51.948;5.922;2023-11-19T14:39:27;23.33;;;3.87;;
57567;SDS011;43403;51.948;5.922;2023-11-19T14:41:55;27.77;;;3.95;;
57567;SDS011;43403;51.948;5.922;2023-11-19T14:44:24;19.30;;;3.53;;
57567;SDS011;43403;51.948;5.922;2023-11-19T14:46:50;18.20;;;4.00;;
57567;SDS011;43403;51.948;5.922;2023-11-19T14:49:17;26.10;;;4.22;;
57567;SDS011;43403;51.948;5.922;2023-11-19T14:51:43;19.73;;;3.75;;
57567;SDS011;43403;51.948;5.922;2023-11-19T14:54:12;25.30;;;4.40;;
57567;SDS011;43403;51.948;5.922;2023-11-19T14:56:40;26.15;;;4.07;;
57567;SDS011;43403;51.948;5.922;2023-11-19T14:59:07;22.15;;;3.72;;
57567;SDS011;43403;51.948;5.922;2023-11-19T15:01:34;23.83;;;3.35;;
57567;SDS011;43403;51.948;5.922;2023-11-19T15:04:00;31.33;;;3.67;;
57567;SDS011;43403;51.948;5.922;2023-11-19T15:06:31;24.98;;;3.83;;
57567;SDS011;43403;51.948;5.922;2023-11-19T15:08:59;26.80;;;3.80;;
57567;SDS011;43403;51.948;5.922;2023-11-19T15:11:26;23.00;;;4.00;;
57567;SDS011;43403;51.948;5.922;2023-11-19T15:13:52;15.98;;;2.63;;
57567;SDS011;43403;51.948;5.922;2023-11-19T15:16:18;29.83;;;5.30;;
57567;SDS011;43403;51.948;5.922;2023-11-19T15:18:51;22.27;;;3.55;;
57567;SDS011;43403;51.948;5.922;2023-11-19T15:21:18;22.77;;;3.90;;
57567;SDS011;43403;51.948;5.922;2023-11-19T15:23:44;20.20;;;3.13;;